Time;durP1;ratioP1;P1;durP2;ratioP2;P2;SDS_P1;SDS_P2;PMS_P1;PMS_P2;Temp;Humidity;BMP_temperature;BMP_pressure;BME280_temperature;BME280_humidity;BME280_pressure;Samples;Min_cycle;Max_cycle;Signal;HPM_P1;HPM_P2
2021/11/05 00:00:56;;;;;;;1.15;0.88;;;16.80;71.70;;;;;;5104873;28;20048;-38
2021/11/05 00:03:22;;;;;;;1.95;1.20;;;16.80;71.80;;;;;;5104810;28;20039;-37
2021/11/05 00:05:48;;;;;;;1.75;1.20;;;16.90;72.00;;;;;;5104321;28;20453;-38
2021/11/05 00:08:15;;;;;;;1.58;1.08;;;16.90;71.80;;;;;;5104351;28;20063;-38
2021/11/05 00:10:42;;;;;;;1.30;1.07;;;16.90;71.70;;;;;;5104815;28;20028;-37
2021/11/05 00:13:08;;;;;;;2.00;1.27;;;16.90;71.60;;;;;;5103501;28;20035;-38
2021/11/05 00:15:35;;;;;;;1.52;1.30;;;16.90;71.60;;;;;;5104320;28;20056;-38
2021/11/05 00:18:01;;;;;;;1.63;1.15;;;16.80;71.60;;;;;;5104407;28;20036;-38
2021/11/05 00:20:27;;;;;;;1.33;1.17;;;16.80;71.60;;;;;;5104471;28;20052;-38
2021/11/05 00:22:54;;;;;;;1.98;1.23;;;16.80;71.60;;;;;;5103643;28;20038;-38
2021/11/05 00:25:21;;;;;;;;;;;16.80;71.60;;;;;;5104448;28;20038;-38
2021/11/05 00:27:47;;;;;;;1.40;1.23;;;16.80;71.60;;;;;;5104124;28;19915;-37
2021/11/05 00:30:13;;;;;;;2.47;1.00;;;16.80;71.70;;;;;;5104258;28;20833;-45
2021/11/05 00:32:39;;;;;;;1.42;1.33;;;16.70;71.60;;;;;;5104469;28;20028;-38
2021/11/05 00:35:06;;;;;;;1.47;1.23;;;16.80;71.90;;;;;;5102945;28;20115;-38
2021/11/05 00:37:32;;;;;;;1.50;1.13;;;16.90;72.00;;;;;;5103568;28;20032;-38
2021/11/05 00:39:59;;;;;;;1.37;1.27;;;16.90;71.90;;;;;;5104216;28;20257;-37
2021/11/05 00:42:25;;;;;;;3.67;1.50;;;16.90;71.70;;;;;;5104072;28;20619;-38
2021/11/05 00:44:51;;;;;;;1.48;1.30;;;16.90;71.70;;;;;;5103881;28;20542;-38
2021/11/05 00:47:17;;;;;;;1.27;1.17;;;16.80;71.60;;;;;;5103808;28;20132;-37
2021/11/05 00:49:44;;;;;;;2.30;1.40;;;16.80;71.70;;;;;;5104060;28;20115;-37
2021/11/05 00:52:10;;;;;;;1.40;1.27;;;16.80;71.70;;;;;;5085681;28;20032;-38
2021/11/05 00:54:36;;;;;;;1.30;1.20;;;16.80;71.70;;;;;;5103913;28;20074;-38
2021/11/05 00:57:03;;;;;;;1.30;1.20;;;16.80;71.70;;;;;;5103343;28;20514;-38
2021/11/05 00:59:29;;;;;;;1.88;1.38;;;16.70;71.70;;;;;;5103593;28;20032;-38
2021/11/05 01:01:55;;;;;;;1.52;1.30;;;16.70;72.30;;;;;;5103652;28;20035;-38
2021/11/05 01:04:21;;;;;;;1.90;1.27;;;16.70;71.60;;;;;;5103451;28;20050;-37
2021/11/05 01:06:47;;;;;;;1.38;1.13;;;16.80;71.90;;;;;;5103071;28;20053;-37
2021/11/05 01:09:13;;;;;;;1.52;1.42;;;16.90;71.80;;;;;;5103753;28;20039;-38
2021/11/05 01:11:39;;;;;;;2.00;1.20;;;16.90;71.70;;;;;;5103535;28;20088;-38
2021/11/05 01:14:06;;;;;;;1.63;1.20;;;16.90;71.60;;;;;;5103289;28;20076;-37
2021/11/05 01:16:32;;;;;;;1.38;1.10;;;16.90;71.50;;;;;;5103506;28;20024;-37
2021/11/05 01:18:58;;;;;;;2.25;1.10;;;16.80;71.50;;;;;;5103209;28;20035;-37
2021/11/05 01:21:24;;;;;;;1.90;1.42;;;16.80;71.50;;;;;;5103095;28;20039;-37
2021/11/05 01:23:50;;;;;;;1.60;1.25;;;16.80;71.60;;;;;;5101999;28;20071;-38
2021/11/05 01:26:16;;;;;;;1.73;1.42;;;16.80;71.50;;;;;;5103287;28;20020;-38
2021/11/05 01:28:42;;;;;;;1.55;1.20;;;16.70;72.20;;;;;;5103010;28;20027;-38
2021/11/05 01:31:08;;;;;;;1.67;1.25;;;16.70;71.50;;;;;;5103179;28;20092;-38
2021/11/05 01:33:35;;;;;;;1.52;1.27;;;16.80;71.70;;;;;;5103128;28;20040;-37
2021/11/05 01:36:01;;;;;;;1.48;1.38;;;16.90;71.90;;;;;;5102827;28;20433;-38
2021/11/05 01:38:27;;;;;;;1.40;1.30;;;16.90;71.70;;;;;;5102803;28;20039;-37
2021/11/05 01:40:53;;;;;;;1.40;1.05;;;16.90;71.50;;;;;;5103037;28;20028;-37
2021/11/05 01:43:20;;;;;;;1.45;1.20;;;16.90;71.40;;;;;;5102976;28;20032;-38
2021/11/05 01:45:48;;;;;;;3.13;1.20;;;16.80;71.50;;;;;;5103182;28;20028;-38
2021/11/05 01:48:15;;;;;;;1.38;1.25;;;16.80;71.50;;;;;;5101511;28;20252;-37
2021/11/05 01:50:41;;;;;;;1.65;1.40;;;16.80;71.50;;;;;;5103059;28;20577;-37
2021/11/05 01:53:08;;;;;;;1.67;1.35;;;16.80;71.60;;;;;;5102845;28;20070;-37
2021/11/05 01:55:34;;;;;;;1.73;1.30;;;16.80;71.50;;;;;;5102647;28;20584;-37
2021/11/05 01:58:00;;;;;;;1.27;1.05;;;16.70;71.40;;;;;;5093971;28;20543;-37
2021/11/05 02:00:28;;;;;;;1.30;1.10;;;16.80;71.50;;;;;;5081103;28;20064;-38
2021/11/05 02:02:54;;;;;;;1.40;1.30;;;16.70;71.40;;;;;;5081184;28;20092;-37
2021/11/05 02:05:20;;;;;;;1.33;1.00;;;16.70;71.50;;;;;;5082531;28;20048;-37
2021/11/05 02:07:52;;;;;;;1.40;1.20;;;16.80;71.70;;;;;;5095506;28;20024;-37
2021/11/05 02:10:19;;;;;;;1.35;1.17;;;16.90;71.60;;;;;;5102835;28;20016;-38
2021/11/05 02:12:46;;;;;;;1.48;1.30;;;16.90;71.40;;;;;;5101513;28;20016;-38
2021/11/05 02:15:14;;;;;;;1.60;1.30;;;16.90;71.30;;;;;;5102528;28;20056;-37
2021/11/05 02:17:43;;;;;;;2.10;1.23;;;16.80;71.30;;;;;;5102381;28;20304;-37
2021/11/05 02:20:10;;;;;;;1.63;1.20;;;16.80;71.30;;;;;;5084764;28;20016;-38
2021/11/05 02:22:36;;;;;;;1.23;1.10;;;16.80;71.40;;;;;;5102423;28;20028;-38
2021/11/05 02:25:02;;;;;;;1.33;1.23;;;16.80;71.40;;;;;;5102497;28;20264;-38
2021/11/05 02:27:31;;;;;;;1.80;1.20;;;16.70;71.30;;;;;;5102482;28;20024;-38
2021/11/05 02:29:59;;;;;;;1.20;1.10;;;16.70;71.30;;;;;;5102310;28;20024;-38
2021/11/05 02:32:25;;;;;;;2.47;1.30;;;16.70;71.50;;;;;;5102629;28;20028;-37
2021/11/05 02:34:51;;;;;;;1.75;1.40;;;16.80;71.60;;;;;;5102517;28;20028;-37
2021/11/05 02:37:27;;;;;;;1.10;1.00;;;16.90;71.60;;;;;;5092929;28;20056;-38
2021/11/05 02:39:53;;;;;;;1.15;1.10;;;16.90;71.30;;;;;;5081941;28;20085;-37
2021/11/05 02:42:20;;;;;;;1.20;1.00;;;16.90;71.40;;;;;;5082022;28;20029;-37
2021/11/05 02:44:47;;;;;;;1.20;0.87;;;16.80;71.30;;;;;;5081999;28;20035;-38
2021/11/05 02:47:17;;;;;;;1.50;1.30;;;16.80;71.40;;;;;;5065558;28;20029;-38
2021/11/05 02:49:44;;;;;;;1.50;1.20;;;16.80;71.40;;;;;;5085417;28;20037;-38
2021/11/05 02:52:10;;;;;;;1.73;1.42;;;16.80;71.30;;;;;;5106179;28;20087;-38
2021/11/05 02:54:36;;;;;;;1.10;1.00;;;16.70;71.30;;;;;;5087875;28;20028;-38
2021/11/05 02:57:03;;;;;;;2.63;1.30;;;16.70;71.20;;;;;;5105737;28;20675;-38
2021/11/05 02:59:29;;;;;;;1.77;1.00;;;16.70;71.30;;;;;;5105745;28;20039;-37
2021/11/05 03:01:55;;;;;;;1.25;1.10;;;16.70;71.20;;;;;;5105840;28;20024;-38
2021/11/05 03:04:22;;;;;;;1.35;1.20;;;16.70;71.50;;;;;;5105840;28;20101;-38
2021/11/05 03:06:49;;;;;;;1.13;1.00;;;16.80;71.60;;;;;;5100109;28;20066;-37
2021/11/05 03:09:16;;;;;;;1.55;1.23;;;16.80;71.50;;;;;;5085177;28;20039;-38
2021/11/05 03:11:43;;;;;;;1.40;1.30;;;16.80;71.20;;;;;;5067485;28;20701;-37
2021/11/05 03:14:10;;;;;;;0.95;0.95;;;16.80;71.20;;;;;;5092416;28;20061;-38
2021/11/05 03:16:37;;;;;;;1.40;1.20;;;16.80;71.20;;;;;;5105826;28;20036;-37
2021/11/05 03:19:03;;;;;;;1.70;1.37;;;16.80;71.30;;;;;;5104474;28;20020;-37
2021/11/05 03:21:29;;;;;;;1.20;1.10;;;16.70;71.20;;;;;;5105519;28;20027;-37
2021/11/05 03:23:55;;;;;;;1.27;1.17;;;16.70;71.30;;;;;;5105513;28;20035;-38
2021/11/05 03:26:22;;;;;;;1.38;1.27;;;16.70;71.30;;;;;;5105249;28;20052;-38
2021/11/05 03:28:48;;;;;;;1.27;1.15;;;16.70;71.40;;;;;;5105186;28;20028;-37
2021/11/05 03:31:14;;;;;;;1.25;1.08;;;16.80;71.60;;;;;;5105511;28;20044;-38
2021/11/05 03:33:40;;;;;;;1.17;1.08;;;16.80;71.50;;;;;;5105639;28;20061;-38
2021/11/05 03:36:07;;;;;;;1.13;1.02;;;16.90;71.40;;;;;;5105520;28;20027;-38
2021/11/05 03:38:33;;;;;;;1.30;1.17;;;16.80;71.30;;;;;;5104681;28;20090;-38
2021/11/05 03:40:59;;;;;;;1.10;1.00;;;16.80;71.30;;;;;;5105287;28;20058;-38
2021/11/05 03:43:25;;;;;;;1.42;1.10;;;16.80;71.30;;;;;;5105345;28;20036;-38
2021/11/05 03:45:51;;;;;;;1.27;1.00;;;16.80;71.30;;;;;;5105207;28;20020;-37
2021/11/05 03:48:17;;;;;;;1.52;1.25;;;16.70;71.20;;;;;;5105159;28;20055;-37
2021/11/05 03:50:44;;;;;;;1.13;1.02;;;16.70;71.20;;;;;;5094295;28;20034;-38
2021/11/05 03:53:10;;;;;;;1.35;1.25;;;16.70;71.20;;;;;;5084680;28;20032;-38
2021/11/05 03:55:36;;;;;;;1.10;1.00;;;16.70;71.30;;;;;;5084538;28;20074;-38
2021/11/05 03:58:02;;;;;;;1.13;1.02;;;16.70;71.50;;;;;;5084535;28;20026;-37
2021/11/05 04:00:28;;;;;;;1.15;1.00;;;16.80;71.60;;;;;;5086404;28;20062;-38
2021/11/05 04:02:54;;;;;;;1.33;1.23;;;16.80;71.50;;;;;;5083248;28;20044;-38
2021/11/05 04:05:20;;;;;;;1.50;1.13;;;16.80;71.30;;;;;;5084640;28;20179;-38
2021/11/05 04:07:47;;;;;;;1.10;1.00;;;16.80;71.40;;;;;;5097560;28;20020;-38
2021/11/05 04:10:13;;;;;;;1.30;1.10;;;16.80;71.40;;;;;;5104434;28;20097;-37
2021/11/05 04:12:39;;;;;;;1.20;1.00;;;16.70;71.30;;;;;;5103341;28;20030;-38
2021/11/05 04:15:06;;;;;;;1.50;1.35;;;16.80;71.40;;;;;;5104384;28;20056;-38
2021/11/05 04:17:32;;;;;;;1.38;1.27;;;16.70;71.40;;;;;;5104652;28;20028;-37
2021/11/05 04:19:58;;;;;;;1.17;1.08;;;16.70;71.40;;;;;;5104254;28;20039;-38
2021/11/05 04:22:24;;;;;;;1.40;1.30;;;16.70;71.30;;;;;;5104266;28;20512;-38
2021/11/05 04:24:50;;;;;;;1.48;1.33;;;16.70;71.60;;;;;;5104399;28;20035;-37
2021/11/05 04:27:17;;;;;;;1.25;1.10;;;16.80;71.60;;;;;;5104296;28;20032;-37
2021/11/05 04:29:43;;;;;;;1.20;1.10;;;16.80;71.50;;;;;;5104097;28;20060;-38
2021/11/05 04:32:09;;;;;;;0.77;0.77;;;16.80;71.30;;;;;;5104447;28;20027;-38
2021/11/05 04:34:35;;;;;;;1.08;0.98;;;16.80;71.30;;;;;;5104200;28;20032;-37
2021/11/05 04:37:01;;;;;;;1.10;1.00;;;16.80;71.30;;;;;;5103776;28;20039;-37
2021/11/05 04:39:28;;;;;;;1.90;1.00;;;16.80;71.40;;;;;;5103998;28;20056;-38
2021/11/05 04:41:54;;;;;;;1.77;1.30;;;16.70;71.30;;;;;;5104190;28;20083;-38
2021/11/05 04:44:20;;;;;;;1.40;1.20;;;16.70;71.30;;;;;;5103857;28;20081;-38
2021/11/05 04:46:47;;;;;;;1.02;0.95;;;16.70;71.50;;;;;;5104169;28;20024;-38
2021/11/05 04:49:13;;;;;;;1.20;1.10;;;16.80;71.50;;;;;;5104087;28;20039;-37
2021/11/05 04:51:39;;;;;;;0.93;0.90;;;16.80;71.40;;;;;;5103513;28;20678;-37
2021/11/05 04:54:06;;;;;;;1.10;1.00;;;16.90;71.30;;;;;;5103741;28;20057;-37
2021/11/05 04:56:34;;;;;;;1.20;1.10;;;16.80;71.30;;;;;;5103824;28;20028;-41
2021/11/05 04:59:00;;;;;;;1.45;1.10;;;16.80;71.30;;;;;;5103399;28;20048;-45
2021/11/05 05:01:26;;;;;;;1.77;1.23;;;16.80;71.30;;;;;;5103506;28;20073;-38
2021/11/05 05:03:52;;;;;;;1.30;1.20;;;16.80;71.40;;;;;;5103671;28;20040;-38
2021/11/05 05:06:19;;;;;;;1.30;1.20;;;16.70;71.30;;;;;;5103383;28;20035;-38
2021/11/05 05:08:45;;;;;;;1.50;1.40;;;16.80;72.10;;;;;;5103521;28;20036;-38
2021/11/05 05:11:13;;;;;;;1.40;1.30;;;16.70;71.30;;;;;;5102810;28;20056;-37
2021/11/05 05:13:40;;;;;;;1.40;1.30;;;16.70;71.30;;;;;;5103408;28;20043;-38
2021/11/05 05:16:06;;;;;;;1.50;1.17;;;16.80;71.50;;;;;;5103601;28;20024;-37
2021/11/05 05:18:32;;;;;;;1.40;1.30;;;16.80;71.50;;;;;;5101947;28;20060;-37
2021/11/05 05:20:58;;;;;;;1.20;1.10;;;16.80;71.30;;;;;;5103270;28;20020;-37
2021/11/05 05:23:25;;;;;;;1.15;1.05;;;16.90;71.10;;;;;;5103325;28;20136;-37
2021/11/05 05:25:51;;;;;;;1.40;1.30;;;16.80;71.10;;;;;;5103025;28;20035;-37
2021/11/05 05:28:17;;;;;;;1.80;1.20;;;16.80;71.10;;;;;;5103403;28;20032;-37
2021/11/05 05:30:43;;;;;;;1.50;1.40;;;16.80;71.20;;;;;;5103195;28;20035;-37
2021/11/05 05:33:09;;;;;;;1.35;1.25;;;16.80;71.20;;;;;;5103301;28;20127;-37
2021/11/05 05:35:36;;;;;;;1.52;1.23;;;16.70;71.10;;;;;;5103052;28;20028;-38
2021/11/05 05:38:02;;;;;;;1.25;1.15;;;16.70;71.10;;;;;;5102669;28;20027;-37
2021/11/05 05:40:28;;;;;;;1.17;1.08;;;16.70;71.10;;;;;;5103157;28;20028;-38
2021/11/05 05:42:54;;;;;;;1.05;0.98;;;16.70;71.30;;;;;;5103149;28;20028;-38
2021/11/05 05:45:21;;;;;;;1.00;0.90;;;16.80;71.20;;;;;;5102875;28;20032;-38
2021/11/05 05:47:47;;;;;;;1.00;0.90;;;16.90;71.00;;;;;;5099452;28;20036;-38
2021/11/05 05:50:15;;;;;;;1.35;1.23;;;16.90;70.80;;;;;;5102947;28;20057;-38
2021/11/05 05:52:42;;;;;;;1.10;0.90;;;16.80;70.70;;;;;;5102502;28;20028;-37
2021/11/05 05:55:09;;;;;;;0.90;0.90;;;16.80;70.80;;;;;;5103191;28;20024;-37
2021/11/05 05:57:36;;;;;;;1.20;0.95;;;16.80;70.90;;;;;;5102811;28;20111;-38
2021/11/05 06:00:04;;;;;;;0.85;0.85;;;16.70;70.80;;;;;;5101520;28;20036;-38
2021/11/05 06:02:30;;;;;;;1.08;0.93;;;16.80;70.90;;;;;;5102841;28;20421;-37
2021/11/05 06:04:56;;;;;;;1.02;0.93;;;16.70;70.90;;;;;;5102891;28;20035;-37
2021/11/05 06:07:23;;;;;;;0.80;0.80;;;16.80;71.10;;;;;;5102259;28;20091;-38
2021/11/05 06:09:49;;;;;;;0.75;0.75;;;16.80;71.10;;;;;;5102966;28;20032;-37
2021/11/05 06:12:15;;;;;;;0.82;0.82;;;16.80;70.90;;;;;;5102674;28;20707;-38
2021/11/05 06:14:41;;;;;;;0.73;0.70;;;16.80;70.70;;;;;;5102588;28;20056;-38
2021/11/05 06:17:07;;;;;;;0.82;0.77;;;16.80;70.80;;;;;;5102416;28;20504;-37
2021/11/05 06:19:34;;;;;;;0.77;0.75;;;16.80;70.90;;;;;;5102866;28;20042;-37
2021/11/05 06:22:00;;;;;;;1.00;0.80;;;16.80;70.90;;;;;;5103797;28;20073;-38
2021/11/05 06:24:26;;;;;;;0.90;0.90;;;16.70;70.90;;;;;;5106694;28;20051;-38
2021/11/05 06:26:52;;;;;;;0.85;0.85;;;16.70;70.80;;;;;;5106873;28;20091;-38
2021/11/05 06:29:18;;;;;;;0.80;0.80;;;16.70;70.90;;;;;;5106732;28;20032;-38
2021/11/05 06:31:45;;;;;;;1.50;0.90;;;16.70;70.90;;;;;;5106762;28;20058;-37
2021/11/05 06:34:11;;;;;;;1.00;0.90;;;16.70;70.90;;;;;;5106654;28;20036;-38
2021/11/05 06:36:37;;;;;;;0.73;0.70;;;16.70;71.10;;;;;;5105913;28;20129;-38
2021/11/05 06:39:04;;;;;;;0.70;0.60;;;16.80;71.00;;;;;;5106474;28;20035;-38
2021/11/05 06:41:30;;;;;;;1.10;0.80;;;16.80;70.70;;;;;;5105356;28;20028;-38
2021/11/05 06:43:57;;;;;;;0.80;0.73;;;16.80;70.70;;;;;;5106378;28;20441;-37
2021/11/05 06:46:23;;;;;;;0.85;0.73;;;16.80;70.70;;;;;;5106013;28;20399;-38
2021/11/05 06:48:49;;;;;;;0.65;0.65;;;16.80;70.80;;;;;;5106350;28;20032;-38
2021/11/05 06:51:15;;;;;;;0.63;0.63;;;16.70;70.80;;;;;;5105976;28;20024;-38
2021/11/05 06:53:42;;;;;;;0.80;0.80;;;16.70;70.80;;;;;;5104664;28;20032;-38
2021/11/05 06:56:08;;;;;;;0.73;0.73;;;16.70;70.90;;;;;;5106220;28;20024;-38
2021/11/05 06:58:38;;;;;;;0.70;0.60;;;16.80;71.10;;;;;;5106114;28;20701;-38
2021/11/05 07:01:05;;;;;;;0.60;0.55;;;16.80;71.60;;;;;;5106007;28;20031;-38
2021/11/05 07:03:31;;;;;;;0.82;0.70;;;16.80;70.70;;;;;;5105991;28;20062;-38
2021/11/05 07:05:58;;;;;;;0.80;0.60;;;16.80;70.70;;;;;;5106037;28;20031;-37
2021/11/05 07:08:25;;;;;;;0.77;0.77;;;16.80;70.70;;;;;;5105341;28;20094;-38
2021/11/05 07:10:51;;;;;;;0.50;0.50;;;16.70;70.60;;;;;;5106045;28;20106;-38
2021/11/05 07:13:17;;;;;;;0.70;0.70;;;16.80;70.80;;;;;;5105934;28;20028;-38
2021/11/05 07:15:44;;;;;;;3.05;0.90;;;16.70;70.80;;;;;;5105515;28;20123;-37
2021/11/05 07:18:10;;;;;;;0.83;0.80;;;16.70;70.70;;;;;;5105756;28;20032;-38
2021/11/05 07:20:37;;;;;;;0.80;0.80;;;16.70;70.80;;;;;;5105796;28;20117;-38
2021/11/05 07:23:04;;;;;;;0.70;0.70;;;16.70;70.90;;;;;;5105417;28;20046;-38
2021/11/05 07:25:30;;;;;;;0.65;0.65;;;16.70;71.00;;;;;;5105806;28;20515;-38
2021/11/05 07:27:57;;;;;;;0.88;0.68;;;16.80;70.80;;;;;;5105390;28;20398;-38
2021/11/05 07:30:23;;;;;;;0.60;0.60;;;16.80;70.70;;;;;;5105427;28;20039;-38
2021/11/05 07:32:51;;;;;;;0.98;0.75;;;16.80;70.60;;;;;;5104922;28;20040;-38
2021/11/05 07:35:20;;;;;;;0.85;0.75;;;16.80;70.70;;;;;;5105427;28;20040;-37
2021/11/05 07:37:46;;;;;;;0.50;0.50;;;16.70;70.60;;;;;;5103323;28;20024;-38
2021/11/05 07:40:12;;;;;;;0.75;0.70;;;16.70;70.60;;;;;;5104820;28;20111;-37
2021/11/05 07:42:39;;;;;;;0.75;0.68;;;16.70;70.70;;;;;;5085109;28;20062;-37
2021/11/05 07:45:06;;;;;;;0.90;0.80;;;16.70;70.70;;;;;;5095656;28;20047;-38
2021/11/05 07:47:33;;;;;;;0.73;0.55;;;16.70;70.90;;;;;;5105002;28;20021;-38
2021/11/05 07:49:59;;;;;;;0.73;0.70;;;16.80;70.90;;;;;;5105121;28;20036;-37
2021/11/05 07:52:25;;;;;;;0.70;0.70;;;16.80;70.70;;;;;;5105079;28;20637;-38
2021/11/05 07:54:51;;;;;;;0.80;0.60;;;16.80;70.60;;;;;;5105044;28;20031;-38
2021/11/05 07:57:17;;;;;;;1.42;0.68;;;16.80;70.50;;;;;;5105044;28;20028;-37
2021/11/05 07:59:43;;;;;;;0.60;0.60;;;16.70;70.50;;;;;;5104952;28;20024;-38
2021/11/05 08:02:10;;;;;;;0.65;0.65;;;16.70;70.60;;;;;;5104971;28;20031;-37
2021/11/05 08:04:36;;;;;;;1.05;0.80;;;16.70;70.60;;;;;;5104636;28;20054;-37
2021/11/05 08:07:02;;;;;;;0.70;0.70;;;16.70;70.60;;;;;;5104582;28;20048;-38
2021/11/05 08:09:29;;;;;;;0.55;0.55;;;16.60;70.60;;;;;;5104548;28;20036;-38
2021/11/05 08:11:55;;;;;;;0.63;0.63;;;16.70;70.90;;;;;;5104734;28;20033;-38
2021/11/05 08:14:21;;;;;;;0.50;0.50;;;16.80;70.90;;;;;;5104416;28;20056;-38
2021/11/05 08:16:47;;;;;;;0.60;0.60;;;16.80;70.70;;;;;;5104600;28;20164;-38
2021/11/05 08:19:13;;;;;;;0.50;0.50;;;16.80;70.50;;;;;;5104512;28;20105;-37
2021/11/05 08:21:39;;;;;;;0.95;0.63;;;16.70;70.50;;;;;;5104644;28;20149;-38
2021/11/05 08:24:06;;;;;;;0.88;0.70;;;16.70;70.50;;;;;;5104297;28;20036;-38
2021/11/05 08:26:32;;;;;;;0.70;0.70;;;16.70;70.60;;;;;;5104437;28;20024;-38
2021/11/05 08:28:58;;;;;;;0.95;0.82;;;16.70;70.70;;;;;;5104347;28;20040;-38
2021/11/05 08:31:25;;;;;;;0.50;0.50;;;16.60;70.60;;;;;;5103040;28;20092;-38
2021/11/05 08:33:51;;;;;;;0.60;0.60;;;16.70;70.90;;;;;;5104273;28;20039;-38
2021/11/05 08:36:20;;;;;;;0.60;0.60;;;16.80;71.00;;;;;;5104143;28;20265;-38
2021/11/05 08:38:47;;;;;;;0.60;0.60;;;16.80;70.80;;;;;;5103807;28;20035;-38
2021/11/05 08:41:17;;;;;;;0.60;0.60;;;16.80;70.70;;;;;;5104106;28;20035;-38
2021/11/05 08:43:45;;;;;;;0.65;0.65;;;16.70;70.60;;;;;;5103613;28;20815;-38
2021/11/05 08:46:16;;;;;;;0.93;0.60;;;16.80;70.70;;;;;;5103438;28;20036;-38
2021/11/05 08:48:43;;;;;;;0.63;0.60;;;16.70;70.70;;;;;;5103800;28;20050;-37
2021/11/05 08:51:11;;;;;;;0.73;0.50;;;16.70;70.80;;;;;;5103783;28;20036;-38
2021/11/05 08:53:38;;;;;;;0.88;0.75;;;16.70;70.80;;;;;;5103840;28;20036;-38
2021/11/05 08:56:05;;;;;;;0.60;0.60;;;16.60;70.70;;;;;;5103796;28;20039;-38
2021/11/05 08:58:31;;;;;;;0.40;0.40;;;16.70;71.10;;;;;;5103690;28;20618;-38
2021/11/05 09:00:57;;;;;;;0.40;0.40;;;16.80;71.10;;;;;;5103873;28;20424;-38
2021/11/05 09:03:24;;;;;;;0.50;0.50;;;16.80;70.80;;;;;;5103645;28;20040;-38
2021/11/05 09:05:50;;;;;;;0.87;0.57;;;16.80;70.70;;;;;;5103626;28;20028;-38
2021/11/05 09:08:16;;;;;;;0.50;0.50;;;16.70;70.70;;;;;;5102810;28;21195;-38
2021/11/05 09:10:42;;;;;;;0.60;0.50;;;16.70;70.80;;;;;;5103640;28;20028;-38
2021/11/05 09:13:09;;;;;;;0.55;0.55;;;16.70;70.80;;;;;;5103572;28;20173;-38
2021/11/05 09:15:35;;;;;;;0.73;0.57;;;16.70;70.80;;;;;;5103269;28;20076;-38
2021/11/05 09:18:04;;;;;;;0.63;0.60;;;16.70;71.00;;;;;;5103421;28;20028;-38
2021/11/05 09:20:30;;;;;;;0.50;0.50;;;16.70;71.10;;;;;;5103374;28;20390;-38
2021/11/05 09:22:56;;;;;;;0.63;0.63;;;16.80;70.90;;;;;;5101823;28;20028;-38
2021/11/05 09:25:22;;;;;;;0.50;0.50;;;16.80;70.80;;;;;;5103259;28;20040;-38
2021/11/05 09:27:49;;;;;;;0.70;0.70;;;16.70;70.70;;;;;;5103315;28;20520;-38
2021/11/05 09:30:16;;;;;;;0.55;0.50;;;16.70;70.70;;;;;;5102842;28;20092;-38
2021/11/05 09:32:42;;;;;;;0.63;0.63;;;16.70;70.90;;;;;;5103319;28;20066;-38
2021/11/05 09:35:08;;;;;;;0.70;0.70;;;16.60;70.70;;;;;;5103169;28;20100;-38
2021/11/05 09:37:36;;;;;;;0.70;0.70;;;16.70;71.10;;;;;;5102616;28;20092;-38
2021/11/05 09:40:02;;;;;;;;;;;16.70;71.20;;;;;;5095975;28;20503;-38
2021/11/05 09:42:30;;;;;;;0.60;0.60;;;16.80;71.10;;;;;;5082875;28;19934;-38
2021/11/05 09:44:57;;;;;;;0.73;0.52;;;16.80;70.90;;;;;;5083723;28;20032;-38
2021/11/05 09:47:23;;;;;;;0.65;0.60;;;16.80;70.80;;;;;;5103040;28;20031;-38
2021/11/05 09:49:49;;;;;;;1.45;0.68;;;16.70;70.80;;;;;;5101340;28;20040;-37
2021/11/05 09:52:16;;;;;;;0.60;0.52;;;16.70;70.90;;;;;;5103075;28;20028;-38
2021/11/05 09:54:42;;;;;;;0.50;0.50;;;16.70;70.90;;;;;;5101481;28;20027;-37
2021/11/05 09:57:08;;;;;;;0.73;0.73;;;16.60;70.90;;;;;;5101384;28;20028;-38
2021/11/05 09:59:34;;;;;;;0.60;0.60;;;16.60;71.00;;;;;;5102782;28;20592;-37
2021/11/05 10:02:01;;;;;;;0.70;0.70;;;16.70;71.20;;;;;;5102772;28;20031;-37
2021/11/05 10:04:27;;;;;;;0.60;0.60;;;16.80;71.20;;;;;;5102807;28;20036;-37
2021/11/05 10:07:00;;;;;;;0.50;0.50;;;16.80;71.00;;;;;;5102528;28;20028;-38
2021/11/05 10:09:30;;;;;;;0.70;0.60;;;16.80;70.90;;;;;;5102470;28;20372;-38
2021/11/05 10:11:59;;;;;;;0.82;0.70;;;16.70;70.80;;;;;;5084994;28;20024;-38
2021/11/05 10:14:25;;;;;;;0.60;0.60;;;16.70;70.90;;;;;;5084851;28;20056;-38
2021/11/05 10:17:01;;;;;;;0.60;0.60;;;16.70;71.00;;;;;;5101093;28;20110;-38
2021/11/05 10:19:55;;;;;;;0.47;0.47;;;16.60;70.80;;;;;;5102459;28;20748;-37
2021/11/05 10:22:35;;;;;;;0.60;0.57;;;16.60;71.00;;;;;;5102504;28;20050;-38
2021/11/05 10:25:30;;;;;;;0.63;0.63;;;16.70;71.30;;;;;;5102155;28;20048;-42
2021/11/05 10:28:21;;;;;;;0.70;0.70;;;16.80;71.10;;;;;;5102629;28;20025;-39
2021/11/05 10:30:47;;;;;;;0.57;0.57;;;16.80;70.90;;;;;;5102081;28;20104;-38
2021/11/05 10:33:15;;;;;;;0.88;0.60;;;16.70;70.90;;;;;;5102615;28;20438;-38
2021/11/05 10:35:42;;;;;;;0.63;0.63;;;16.70;70.90;;;;;;5102517;28;20039;-38
2021/11/05 10:38:11;;;;;;;0.82;0.60;;;16.70;70.90;;;;;;5102169;28;20032;-38
2021/11/05 10:40:51;;;;;;;0.70;0.70;;;16.70;71.00;;;;;;5102295;28;20032;-38
2021/11/05 10:43:29;;;;;;;0.68;0.60;;;16.60;70.90;;;;;;5102283;28;20040;-38
2021/11/05 10:45:55;;;;;;;0.52;0.52;;;16.60;70.90;;;;;;5101113;28;20115;-38
2021/11/05 10:48:23;;;;;;;0.50;0.50;;;16.70;71.30;;;;;;5102260;28;20036;-39
2021/11/05 10:51:02;;;;;;;0.60;0.60;;;16.70;71.20;;;;;;5102226;28;20048;-38
2021/11/05 10:53:37;;;;;;;0.47;0.47;;;16.70;71.10;;;;;;5101967;28;20025;-38
2021/11/05 10:56:07;;;;;;;0.63;0.63;;;16.70;71.00;;;;;;5102339;28;20038;-38
2021/11/05 10:58:40;;;;;;;0.70;0.70;;;16.70;71.10;;;;;;5102284;28;20027;-38
2021/11/05 11:01:10;;;;;;;1.13;0.90;;;16.60;71.00;;;;;;5102015;28;20034;-38
2021/11/05 11:03:38;;;;;;;0.65;0.65;;;16.60;71.10;;;;;;5101823;28;20047;-38
2021/11/05 11:06:28;;;;;;;0.63;0.63;;;16.60;71.10;;;;;;5102340;28;20125;-38
2021/11/05 11:09:09;;;;;;;0.52;0.50;;;16.70;71.40;;;;;;5084461;28;20063;-38
2021/11/05 11:11:47;;;;;;;0.50;0.50;;;16.70;71.20;;;;;;5105625;28;20020;-38
2021/11/05 11:14:17;;;;;;;0.68;0.55;;;16.80;71.00;;;;;;5105574;28;20079;-38
2021/11/05 11:16:53;;;;;;;0.63;0.63;;;16.70;71.00;;;;;;5105528;28;20031;-38
2021/11/05 11:19:21;;;;;;;0.60;0.60;;;16.70;71.10;;;;;;5105611;28;20028;-38
2021/11/05 11:21:47;;;;;;;0.55;0.50;;;16.60;71.00;;;;;;5105466;28;20039;-38
2021/11/05 11:24:16;;;;;;;0.80;0.80;;;16.60;71.10;;;;;;5105539;28;20089;-38
2021/11/05 11:26:43;;;;;;;0.77;0.68;;;16.60;71.80;;;;;;5105336;28;20024;-37
2021/11/05 11:29:09;;;;;;;;;;;16.60;71.20;;;;;;5106072;28;20024;-38
2021/11/05 11:31:36;;;;;;;0.70;0.70;;;16.70;71.40;;;;;;5105013;28;20589;-38
2021/11/05 11:34:03;;;;;;;1.13;0.80;;;16.70;71.40;;;;;;5105498;28;20088;-38
2021/11/05 11:36:31;;;;;;;0.70;0.70;;;16.70;71.10;;;;;;5104628;28;20084;-38
2021/11/05 11:38:57;;;;;;;0.80;0.70;;;16.70;71.10;;;;;;5087077;28;20048;-38
2021/11/05 11:41:23;;;;;;;0.70;0.70;;;16.70;71.10;;;;;;5083506;28;20409;-38
2021/11/05 11:43:52;;;;;;;0.80;0.80;;;16.70;71.10;;;;;;5066867;28;20117;-38
2021/11/05 11:46:19;;;;;;;0.80;0.80;;;16.70;71.20;;;;;;5085226;28;20029;-38
2021/11/05 11:48:48;;;;;;;0.60;0.50;;;16.60;71.10;;;;;;5103098;28;20050;-38
2021/11/05 11:51:18;;;;;;;0.70;0.70;;;16.60;71.10;;;;;;5104886;28;20077;-38
2021/11/05 11:53:44;;;;;;;0.75;0.60;;;16.60;71.30;;;;;;5104936;28;20028;-38
2021/11/05 11:56:11;;;;;;;0.70;0.60;;;16.70;71.40;;;;;;5103572;28;20020;-38
2021/11/05 11:58:37;;;;;;;0.75;0.75;;;16.70;71.30;;;;;;5103436;28;20100;-38
2021/11/05 12:01:20;;;;;;;0.80;0.80;;;16.70;71.10;;;;;;5086291;28;20039;-38
2021/11/05 12:04:14;;;;;;;0.93;0.93;;;16.70;71.10;;;;;;5103408;28;20051;-38
2021/11/05 12:06:47;;;;;;;0.80;0.70;;;16.60;71.10;;;;;;5102448;28;20075;-38
2021/11/05 12:09:31;;;;;;;0.68;0.65;;;16.60;71.20;;;;;;5104487;28;20047;-38
2021/11/05 12:12:19;;;;;;;0.70;0.70;;;16.60;71.20;;;;;;5104559;28;20031;-38
2021/11/05 12:15:01;;;;;;;1.02;0.77;;;16.60;71.40;;;;;;5104368;28;20055;-38
2021/11/05 12:17:35;;;;;;;0.90;0.80;;;16.70;71.40;;;;;;5104463;28;20029;-38
2021/11/05 12:20:30;;;;;;;0.60;0.60;;;16.70;71.30;;;;;;5086832;28;20028;-38
2021/11/05 12:23:11;;;;;;;0.68;0.68;;;16.70;71.20;;;;;;5102801;28;20020;-38
2021/11/05 12:25:59;;;;;;;1.10;1.00;;;16.70;71.20;;;;;;5104328;28;20024;-38
2021/11/05 12:28:41;;;;;;;0.60;0.60;;;16.60;71.10;;;;;;5104281;28;20039;-38
2021/11/05 12:31:26;;;;;;;0.80;0.80;;;16.60;71.20;;;;;;5104056;28;20044;-38
2021/11/05 12:33:53;;;;;;;0.80;0.75;;;16.60;71.30;;;;;;5104132;28;20028;-38
2021/11/05 12:36:19;;;;;;;0.60;0.60;;;16.70;71.60;;;;;;5102644;28;20024;-39
2021/11/05 12:38:59;;;;;;;0.90;0.90;;;16.70;71.40;;;;;;5102582;28;20043;-38
2021/11/05 12:41:25;;;;;;;0.90;0.80;;;16.70;71.20;;;;;;5103896;28;20058;-38
2021/11/05 12:43:52;;;;;;;0.85;0.70;;;16.70;71.20;;;;;;5102501;28;20035;-38
2021/11/05 12:46:20;;;;;;;0.82;0.82;;;16.70;71.20;;;;;;5104054;28;20024;-38
2021/11/05 12:48:48;;;;;;;0.73;0.73;;;16.70;71.30;;;;;;5103652;28;20481;-37
2021/11/05 12:51:26;;;;;;;0.77;0.77;;;16.60;71.20;;;;;;5103978;28;20031;-38